Bushes, Louisiana
Current Conditions -  °F | °C
As of 2:53 AM on Wednesday 22 Oct 2014 (Local Time) from KMLU Reporting Station
Clear Clear  
Wind Chill: 61°   Ceiling: Unl
Heat Index: 61°   Visibility: 10mi
Dew Point: 54°   Wind: 6mph
Humidity: 78%   Direction: 60°ENE
Pressure: 30.09"   Gusts: NA
Location:  32.1434°N, 91.7026°W
Report Text: KMLU 220753Z AUTO 06005KT 10SM CLR 16/12 A3009 RMK AO2 SLP188 T01610122
Loading
Personal Weather Stations






























Interactive Weather Map
Tropical Storm Tracking
New forecast layout! Learn more

10-Day Weather Forecast

Advertisements
Track Severe Weather on mobile